Time;durP1;ratioP1;P1;durP2;ratioP2;P2;SDS_P1;SDS_P2;PMS_P1;PMS_P2;Temp;Humidity;BMP_temperature;BMP_pressure;BME280_temperature;BME280_humidity;BME280_pressure;Samples;Min_cycle;Max_cycle;Signal;HPM_P1;HPM_P2
2023/08/10 04:06:54;;;;;;;8.20;5.53;;;;;;;14.58;100.00;100678.13;5533719;27;20115;-83
2023/08/10 04:09:57;;;;;;;8.35;5.55;;;;;;;14.62;100.00;100681.25;5355423;33;35293;-83
2023/08/10 04:13:01;;;;;;;8.75;5.55;;;;;;;14.70;100.00;100687.38;5369475;33;34008;-83
2023/08/10 04:16:04;;;;;;;8.60;5.60;;;;;;;14.77;100.00;100690.16;5390252;33;34089;-84
2023/08/10 04:19:07;;;;;;;7.68;5.30;;;;;;;14.82;100.00;100684.13;5394656;33;34654;-84
2023/08/10 04:22:10;;;;;;;8.43;5.60;;;;;;;14.84;100.00;100687.47;5383115;33;34307;-84
2023/08/10 04:25:13;;;;;;;8.20;5.10;;;;;;;14.98;100.00;100696.53;5384428;33;33529;-83
2023/08/10 04:28:16;;;;;;;8.55;4.78;;;;;;;15.07;100.00;100690.75;5386385;33;34245;-84
2023/08/10 04:31:19;;;;;;;9.73;6.00;;;;;;;15.12;100.00;100699.13;5357594;33;34235;-84
2023/08/10 04:34:22;;;;;;;9.57;5.85;;;;;;;15.19;100.00;100697.28;5353910;33;33825;-83
2023/08/10 04:37:24;;;;;;;7.40;5.32;;;;;;;15.32;100.00;100703.81;5365306;33;35203;-83
2023/08/10 04:40:27;;;;;;;9.88;5.65;;;;;;;15.31;100.00;100700.25;5378649;33;33751;-83
2023/08/10 04:43:30;;;;;;;7.78;5.45;;;;;;;15.42;100.00;100702.41;5365592;33;34115;-84
2023/08/10 04:46:33;;;;;;;10.10;6.85;;;;;;;15.57;100.00;100710.41;5365752;33;33942;-84
2023/08/10 04:49:36;;;;;;;7.55;5.45;;;;;;;15.67;100.00;100701.87;5353831;33;33914;-83
2023/08/10 04:52:40;;;;;;;7.97;5.25;;;;;;;15.69;100.00;100699.00;5378545;33;33418;-84
2023/08/10 04:55:43;;;;;;;8.75;5.20;;;;;;;15.80;100.00;100695.69;5378712;33;34666;-83
2023/08/10 04:58:49;;;;;;;9.77;5.22;;;;;;;15.89;100.00;100697.19;5354243;33;34571;-84
2023/08/10 05:01:52;;;;;;;8.00;5.50;;;;;;;16.09;100.00;100699.94;5353505;33;34987;-84
2023/08/10 05:04:55;;;;;;;6.82;5.18;;;;;;;16.18;100.00;100703.31;5365480;33;33708;-84
2023/08/10 05:07:58;;;;;;;7.28;5.47;;;;;;;16.23;100.00;100704.38;5365226;33;33863;-84
2023/08/10 05:11:01;;;;;;;6.28;5.18;;;;;;;16.31;100.00;100708.75;5365395;33;33852;-84
2023/08/10 05:14:04;;;;;;;7.25;4.95;;;;;;;16.44;100.00;100710.63;5363451;33;34521;-84
2023/08/10 05:17:07;;;;;;;6.85;4.60;;;;;;;16.46;100.00;100720.25;5377157;33;33913;-84
2023/08/10 05:20:12;;;;;;;9.02;5.25;;;;;;;16.54;100.00;100722.75;5377254;33;34885;-84
2023/08/10 05:23:16;;;;;;;8.05;4.93;;;;;;;16.61;100.00;100720.03;5365321;33;33591;-83
2023/08/10 05:26:19;;;;;;;5.90;4.10;;;;;;;16.69;100.00;100721.72;5364244;33;34843;-82
2023/08/10 05:29:22;;;;;;;6.32;4.75;;;;;;;16.81;100.00;100732.84;5364692;33;33789;-86
2023/08/10 05:32:25;;;;;;;4.82;4.25;;;;;;;16.95;100.00;100720.91;5376859;33;33801;-86
2023/08/10 05:35:28;;;;;;;7.57;4.57;;;;;;;17.00;100.00;100732.81;5377829;33;34683;-86
2023/08/10 05:38:31;;;;;;;7.97;4.87;;;;;;;17.01;100.00;100725.50;5377305;33;33791;-86
2023/08/10 05:41:34;;;;;;;5.40;4.37;;;;;;;17.03;100.00;100728.00;5364713;33;33405;-83
2023/08/10 05:44:36;;;;;;;6.55;4.37;;;;;;;17.13;100.00;100733.84;5378040;33;33958;-82
2023/08/10 05:47:39;;;;;;;7.50;4.53;;;;;;;17.34;100.00;100735.47;5364579;33;34697;-83
2023/08/10 05:50:42;;;;;;;7.28;4.20;;;;;;;17.52;100.00;100726.59;5378845;33;33766;-86
2023/08/10 05:53:46;;;;;;;6.68;4.25;;;;;;;17.66;100.00;100733.69;5379867;33;33451;-86
2023/08/10 05:56:48;;;;;;;4.95;3.95;;;;;;;17.42;100.00;100740.69;5380080;33;33869;-85
2023/08/10 05:59:51;;;;;;;6.03;4.50;;;;;;;17.56;100.00;100736.03;5376277;33;33893;-86
2023/08/10 06:02:54;;;;;;;9.38;4.25;;;;;;;17.67;100.00;100754.44;5359011;33;33920;-86
2023/08/10 06:05:57;;;;;;;4.30;3.90;;;;;;;17.70;100.00;100743.09;5370772;33;34547;-85
2023/08/10 06:09:00;;;;;;;3.92;3.53;;;;;;;17.85;100.00;100740.12;5367127;33;34447;-86
2023/08/10 06:12:03;;;;;;;5.03;3.60;;;;;;;17.87;100.00;100752.50;5361345;33;33999;-85
2023/08/10 06:15:07;;;;;;;4.53;3.00;;;;;;;18.07;100.00;100740.62;5377474;33;33603;-86
2023/08/10 06:18:10;;;;;;;5.87;3.25;;;;;;;18.12;100.00;100746.28;5387983;33;34075;-86
2023/08/10 06:21:13;;;;;;;3.53;2.97;;;;;;;18.35;100.00;100746.53;5390886;33;33873;-86
2023/08/10 06:24:16;;;;;;;4.07;3.50;;;;;;;18.31;100.00;100748.06;5376512;33;33530;-86
2023/08/10 06:27:19;;;;;;;4.25;3.20;;;;;;;18.43;100.00;100745.44;5411623;32;34691;-85
2023/08/10 06:30:22;;;;;;;4.15;3.33;;;;;;;18.41;100.00;100750.28;5403825;32;33836;-85
2023/08/10 06:33:26;;;;;;;4.45;2.95;;;;;;;18.53;100.00;100740.31;5402958;32;34061;-85
2023/08/10 06:36:29;;;;;;;3.03;2.80;;;;;;;18.76;100.00;100741.66;5359553;33;33505;-85
2023/08/10 06:39:32;;;;;;;5.97;3.08;;;;;;;18.47;100.00;100735.75;5373203;33;33791;-85
2023/08/10 06:42:37;;;;;;;4.18;2.70;;;;;;;18.65;100.00;100745.91;5368476;33;33629;-85
2023/08/10 06:45:41;;;;;;;4.60;3.10;;;;;;;18.69;100.00;100751.75;5388652;33;33497;-85
2023/08/10 06:48:44;;;;;;;4.28;2.85;;;;;;;18.66;100.00;100752.19;5365903;33;33026;-85
2023/08/10 06:51:49;;;;;;;2.60;2.40;;;;;;;18.57;100.00;100749.75;5356364;33;33936;-85
2023/08/10 06:54:52;;;;;;;3.12;2.80;;;;;;;18.62;100.00;100759.16;5368165;33;35557;-85
2023/08/10 06:57:55;;;;;;;2.58;2.30;;;;;;;18.66;100.00;100758.50;5368790;33;34288;-85
2023/08/10 07:00:58;;;;;;;3.12;2.70;;;;;;;18.72;100.00;100764.94;5367934;33;33775;-85
2023/08/10 07:04:01;;;;;;;2.62;2.42;;;;;;;18.85;100.00;100767.59;5405426;33;34510;-85
2023/08/10 07:07:04;;;;;;;2.92;2.50;;;;;;;19.18;100.00;100769.19;5396197;33;34316;-85
2023/08/10 07:10:08;;;;;;;3.67;2.40;;;;;;;19.32;100.00;100772.63;5414008;33;34261;-85
2023/08/10 07:13:11;;;;;;;5.00;2.35;;;;;;;19.52;100.00;100773.25;5422916;32;35278;-85
2023/08/10 07:16:15;;;;;;;2.10;1.90;;;;;;;19.68;100.00;100771.81;5403005;32;34655;-85
2023/08/10 07:19:18;;;;;;;1.83;1.73;;;;;;;19.61;100.00;100771.03;5403213;32;33752;-85
2023/08/10 07:22:21;;;;;;;3.78;1.70;;;;;;;19.67;100.00;100771.00;5387265;33;34837;-85
2023/08/10 07:25:24;;;;;;;2.10;1.55;;;;;;;19.71;100.00;100779.56;5360193;33;33487;-85
2023/08/10 07:28:27;;;;;;;2.53;1.98;;;;;;;19.67;100.00;100789.28;5384517;33;34775;-85
2023/08/10 07:31:33;;;;;;;2.70;2.22;;;;;;;19.44;100.00;100782.56;5372095;32;33568;-85
2023/08/10 07:34:36;;;;;;;2.37;1.87;;;;;;;19.59;100.00;100786.81;5384766;32;34255;-85
2023/08/10 07:37:40;;;;;;;1.67;1.58;;;;;;;19.86;100.00;100787.34;5384602;32;33372;-85
2023/08/10 07:40:43;;;;;;;2.15;1.95;;;;;;;20.32;100.00;100784.00;5384033;33;33876;-85
2023/08/10 07:43:46;;;;;;;2.03;1.80;;;;;;;20.39;100.00;100784.75;5384264;33;33473;-85
2023/08/10 07:46:49;;;;;;;1.70;1.60;;;;;;;20.54;100.00;100781.62;5372629;33;33642;-85
2023/08/10 07:49:52;;;;;;;2.25;1.90;;;;;;;20.79;100.00;100784.16;5372662;33;34218;-88
2023/08/10 07:52:55;;;;;;;1.60;1.50;;;;;;;21.24;100.00;100780.88;5384562;33;33878;-89
2023/08/10 07:55:58;;;;;;;1.65;1.55;;;;;;;21.53;97.74;100778.28;5387866;33;34718;-89
2023/08/10 07:59:01;;;;;;;2.42;1.70;;;;;;;21.64;92.77;100771.91;5371820;33;33922;-90
2023/08/10 08:02:04;;;;;;;3.40;1.60;;;;;;;21.47;93.74;100773.75;5397618;32;33713;-85
2023/08/10 08:05:08;;;;;;;1.92;1.75;;;;;;;21.36;93.49;100780.03;5384547;33;34317;-86
2023/08/10 08:08:10;;;;;;;3.33;1.50;;;;;;;21.28;95.40;100782.06;5370424;33;34154;-85
2023/08/10 08:11:14;;;;;;;1.60;1.45;;;;;;;20.95;96.09;100779.91;5398110;33;33185;-85
2023/08/10 08:14:16;;;;;;;1.48;1.30;;;;;;;20.91;94.00;100783.34;5380702;33;33744;-85
2023/08/10 08:17:20;;;;;;;2.17;1.40;;;;;;;20.90;92.36;100793.47;5385505;33;34255;-85
2023/08/10 08:20:22;;;;;;;2.55;1.40;;;;;;;21.09;95.75;100787.88;5395755;33;35429;-85
2023/08/10 08:23:25;;;;;;;2.00;1.80;;;;;;;21.39;92.54;100776.84;5395152;32;33843;-85
2023/08/10 08:26:28;;;;;;;3.70;1.52;;;;;;;21.55;90.74;100791.72;5413284;32;33827;-85
2023/08/10 08:29:31;;;;;;;2.00;1.58;;;;;;;21.42;91.00;100788.16;5405040;32;33863;-85
2023/08/10 08:32:34;;;;;;;2.22;1.58;;;;;;;21.33;85.50;100803.25;5403403;32;33835;-85
2023/08/10 08:35:54;;;;;;;1.50;1.40;;;;;;;21.55;86.04;100794.44;5383765;32;33548;-85
2023/08/10 08:38:56;;;;;;;1.70;1.60;;;;;;;21.65;85.58;100786.47;5389485;33;34398;-85
2023/08/10 08:42:01;;;;;;;1.30;1.20;;;;;;;22.00;82.98;100789.13;5372456;33;34184;-85
2023/08/10 08:45:05;;;;;;;4.43;1.35;;;;;;;21.92;79.44;100789.50;5397840;33;33768;-85
2023/08/10 08:48:09;;;;;;;2.83;1.10;;;;;;;21.95;78.98;100795.31;5383804;33;33984;-85
2023/08/10 08:51:12;;;;;;;1.58;1.48;;;;;;;22.01;77.25;100793.50;5397427;33;33785;-83
2023/08/10 08:54:15;;;;;;;1.42;1.33;;;;;;;21.91;77.61;100798.81;5383287;33;33851;-83
2023/08/10 08:57:18;;;;;;;3.15;1.48;;;;;;;22.16;77.08;100790.25;5359030;33;33447;-83
2023/08/10 09:00:21;;;;;;;4.00;1.30;;;;;;;22.32;73.54;100797.72;5367114;33;34290;-83
2023/08/10 09:03:25;;;;;;;2.10;1.60;;;;;;;22.22;71.57;100803.00;5365769;33;35123;-84
2023/08/10 09:06:29;;;;;;;1.35;1.25;;;;;;;22.02;71.42;100797.91;5365516;33;33777;-83
2023/08/10 09:09:32;;;;;;;2.65;1.45;;;;;;;22.11;70.61;100801.97;5366194;33;33876;-83
2023/08/10 09:12:40;;;;;;;3.17;1.87;;;;;;;22.28;68.07;100801.19;5379126;33;33805;-83
2023/08/10 09:15:43;;;;;;;1.50;1.40;;;;;;;22.52;70.24;100794.53;5365411;33;34596;-83
2023/08/10 09:18:47;;;;;;;5.25;1.30;;;;;;;22.64;65.63;100800.78;5378587;33;34720;-83
2023/08/10 09:21:50;;;;;;;1.10;1.10;;;;;;;22.76;63.78;100792.47;5354713;33;33805;-84
2023/08/10 09:24:53;;;;;;;1.55;1.30;;;;;;;22.73;59.47;100792.97;5373910;33;33917;-84
2023/08/10 09:27:56;;;;;;;2.40;0.98;;;;;;;22.68;57.17;100790.13;5371261;33;33979;-84
2023/08/10 09:30:59;;;;;;;1.73;1.10;;;;;;;22.71;56.48;100797.88;5368434;33;34280;-84
2023/08/10 09:34:04;;;;;;;1.27;1.05;;;;;;;23.16;55.88;100787.91;5353673;33;34010;-84
2023/08/10 09:37:07;;;;;;;1.27;0.98;;;;;;;23.38;55.80;100793.47;5354332;33;33440;-84
2023/08/10 09:40:14;;;;;;;0.90;0.90;;;;;;;23.34;51.50;100790.38;5365667;33;33545;-84
2023/08/10 09:43:17;;;;;;;0.95;0.88;;;;;;;23.16;50.23;100796.97;5378952;33;34125;-84
2023/08/10 09:46:20;;;;;;;0.80;0.80;;;;;;;23.30;51.54;100792.78;5394195;32;34322;-84
2023/08/10 09:49:23;;;;;;;3.25;0.95;;;;;;;23.46;52.21;100796.63;5384388;33;33455;-84
2023/08/10 09:52:26;;;;;;;3.03;1.48;;;;;;;23.33;49.98;100785.97;5374328;33;33749;-85
2023/08/10 09:55:29;;;;;;;1.85;1.12;;;;;;;23.39;50.97;100786.88;5407365;33;33518;-85
2023/08/10 09:58:33;;;;;;;1.30;1.10;;;;;;;23.32;50.07;100795.31;5392310;33;33911;-85
2023/08/10 10:01:36;;;;;;;1.90;1.10;;;;;;;23.50;50.37;100797.75;5406566;33;34565;-84
2023/08/10 10:04:39;;;;;;;1.08;0.98;;;;;;;23.85;51.86;100796.59;5389287;33;34364;-85
2023/08/10 10:07:44;;;;;;;2.85;1.52;;;;;;;23.84;48.89;100797.69;5383313;33;33886;-84
2023/08/10 10:10:48;;;;;;;1.85;1.12;;;;;;;23.82;45.45;100791.62;5383221;33;34331;-84
2023/08/10 10:13:51;;;;;;;1.50;1.27;;;;;;;23.74;46.31;100781.88;5396065;33;34529;-85
2023/08/10 10:16:55;;;;;;;1.08;1.08;;;;;;;23.86;47.49;100792.75;5398447;33;33850;-84
2023/08/10 10:19:58;;;;;;;4.97;1.55;;;;;;;23.87;47.88;100786.19;5374914;33;33968;-84
2023/08/10 10:23:02;;;;;;;1.08;0.95;;;;;;;23.84;45.69;100781.19;5401323;32;33701;-84
2023/08/10 10:26:08;;;;;;;1.00;1.00;;;;;;;23.96;46.04;100783.81;5398642;33;35044;-84
2023/08/10 10:29:16;;;;;;;1.40;1.20;;;;;;;24.11;46.79;100777.66;5387606;33;34431;-85
2023/08/10 10:32:21;;;;;;;2.83;0.82;;;;;;;24.51;46.17;100785.56;5382542;33;34302;-84
2023/08/10 10:35:32;;;;;;;2.50;1.20;;;;;;;24.13;44.77;100778.22;5382636;33;33776;-85
2023/08/10 10:38:38;;;;;;;1.92;1.40;;;;;;;24.18;45.78;100784.59;5400129;32;33385;-85
2023/08/10 10:41:41;;;;;;;2.08;0.93;;;;;;;24.35;45.64;100784.50;5385986;33;34592;-85
2023/08/10 10:45:06;;;;;;;4.45;1.33;;;;;;;24.47;43.74;100773.38;5386969;32;34335;-85
2023/08/10 10:48:10;;;;;;;1.27;0.70;;;;;;;24.88;43.14;100769.06;5418012;32;33741;-85
2023/08/10 10:51:15;;;;;;;1.45;0.90;;;;;;;24.99;43.33;100769.97;5417840;32;33953;-85
2023/08/10 10:54:18;;;;;;;2.60;1.05;;;;;;;25.46;40.57;100779.41;5403641;32;33891;-85
2023/08/10 10:57:21;;;;;;;1.17;0.95;;;;;;;25.23;39.14;100781.47;5415867;32;34605;-85
2023/08/10 11:00:24;;;;;;;2.97;1.20;;;;;;;25.67;38.95;100770.13;5372637;33;34676;-84
2023/08/10 11:03:28;;;;;;;1.92;1.20;;;;;;;25.83;39.89;100771.06;5398744;33;33674;-85
2023/08/10 11:06:31;;;;;;;0.93;0.93;;;;;;;26.15;35.16;100764.50;5391094;32;33779;-85
2023/08/10 11:09:34;;;;;;;0.95;0.88;;;;;;;26.25;35.77;100761.78;5385198;33;34636;-85
2023/08/10 11:12:38;;;;;;;4.87;1.12;;;;;;;27.27;34.67;100764.59;5373832;33;34515;-86
2023/08/10 11:15:46;;;;;;;1.92;0.85;;;;;;;27.32;33.72;100753.53;5401656;33;36040;-85
2023/08/10 11:18:53;;;;;;;0.88;0.80;;;;;;;28.15;31.09;100751.28;5385799;33;33750;-85
2023/08/10 11:21:56;;;;;;;1.08;0.98;;;;;;;28.46;29.07;100751.91;5397787;33;33521;-85
2023/08/10 11:24:59;;;;;;;1.92;0.82;;;;;;;28.02;29.05;100750.78;5397743;33;33934;-85
2023/08/10 11:28:02;;;;;;;1.02;0.90;;;;;;;28.58;27.33;100749.63;5398205;33;34656;-88
2023/08/10 11:31:06;;;;;;;2.40;0.90;;;;;;;28.68;27.68;100752.28;5366255;33;33935;-88
2023/08/10 11:34:23;;;;;;;0.80;0.80;;;;;;;28.47;29.10;100748.03;5379756;33;35090;-90
2023/08/10 11:37:30;;;;;;;1.20;1.10;;;;;;;29.40;27.87;100751.63;5384721;33;35035;-86
2023/08/10 11:40:33;;;;;;;1.02;0.75;;;;;;;30.47;28.78;100736.31;5400589;32;33915;-84
2023/08/10 11:43:36;;;;;;;0.95;0.68;;;;;;;31.66;26.53;100741.41;5398207;33;33616;-83
2023/08/10 11:46:38;;;;;;;1.00;0.80;;;;;;;33.29;24.49;100735.81;5366310;33;33858;-84
2023/08/10 11:49:41;;;;;;;1.12;0.70;;;;;;;34.49;22.16;100734.41;5361311;33;33828;-84
2023/08/10 11:52:45;;;;;;;0.90;0.90;;;;;;;34.17;21.02;100734.94;5366481;33;33773;-84
2023/08/10 11:55:50;;;;;;;0.80;0.80;;;;;;;34.52;21.61;100735.75;5381056;33;34638;-84
2023/08/10 11:58:53;;;;;;;0.60;0.60;;;;;;;35.49;21.29;100734.31;5367027;33;33636;-84
2023/08/10 12:01:58;;;;;;;1.85;0.70;;;;;;;36.17;20.70;100732.25;5369651;33;33768;-84
2023/08/10 12:05:01;;;;;;;0.80;0.80;;;;;;;36.20;19.64;100731.56;5372206;33;33725;-84
2023/08/10 12:08:07;;;;;;;0.73;0.70;;;;;;;35.76;20.05;100719.84;5397518;33;35025;-82
2023/08/10 12:11:12;;;;;;;5.07;1.00;;;;;;;36.00;20.66;100732.37;5397810;33;34034;-82
2023/08/10 12:14:19;;;;;;;0.77;0.70;;;;;;;37.13;21.47;100728.53;5397911;33;34018;-82
2023/08/10 12:17:22;;;;;;;0.70;0.70;;;;;;;38.32;19.18;100722.66;5404373;32;33581;-83
2023/08/10 12:20:25;;;;;;;2.05;0.90;;;;;;;37.93;19.09;100716.69;5419008;32;34371;-83
2023/08/10 12:23:29;;;;;;;4.32;1.20;;;;;;;38.44;19.48;100711.41;5390176;32;33898;-83
2023/08/10 12:26:34;;;;;;;3.78;1.30;;;;;;;38.58;19.17;100718.59;5387690;33;33596;-83
2023/08/10 12:29:37;;;;;;;2.20;0.80;;;;;;;38.34;19.52;100700.63;5377730;33;34115;-84
2023/08/10 12:32:40;;;;;;;1.15;0.85;;;;;;;39.40;18.71;100703.88;5385534;33;33991;-83
2023/08/10 12:35:43;;;;;;;1.25;0.60;;;;;;;38.68;19.41;100704.00;5385988;32;34527;-84
2023/08/10 12:38:46;;;;;;;1.33;0.68;;;;;;;38.39;18.96;100711.63;5393706;32;35085;-84
2023/08/10 12:41:49;;;;;;;2.37;0.85;;;;;;;38.37;18.88;100708.34;5400325;32;33884;-84
2023/08/10 12:44:52;;;;;;;0.77;0.77;;;;;;;39.08;18.70;100706.72;5381554;33;34798;-82
2023/08/10 12:47:55;;;;;;;0.82;0.60;;;;;;;40.20;18.47;100710.16;5375104;33;35295;-82
2023/08/10 12:50:58;;;;;;;2.05;0.80;;;;;;;39.77;18.60;100701.53;5367987;33;34037;-83
2023/08/10 12:54:01;;;;;;;3.30;1.00;;;;;;;40.29;18.21;100699.44;5377248;33;33964;-83
2023/08/10 12:57:04;;;;;;;2.20;0.70;;;;;;;39.63;17.85;100707.63;5392699;33;34001;-83
2023/08/10 13:00:13;;;;;;;1.25;0.68;;;;;;;39.89;17.44;100703.41;5401121;32;34888;-83
2023/08/10 13:03:16;;;;;;;1.67;0.62;;;;;;;40.02;17.19;100701.28;5416105;32;33902;-82
2023/08/10 13:06:19;;;;;;;1.23;0.60;;;;;;;41.39;16.37;100705.47;5415829;32;34655;-83
2023/08/10 13:09:22;;;;;;;2.97;0.88;;;;;;;40.09;15.96;100701.44;5415503;32;33805;-83
2023/08/10 13:12:26;;;;;;;0.85;0.80;;;;;;;41.31;15.79;100692.44;5389341;32;33946;-83
2023/08/10 13:15:29;;;;;;;1.25;0.73;;;;;;;41.99;15.77;100696.28;5402170;32;34438;-83
2023/08/10 13:18:32;;;;;;;0.90;0.70;;;;;;;42.26;15.92;100694.19;5401704;32;33391;-83
2023/08/10 13:21:35;;;;;;;0.57;0.57;;;;;;;43.26;14.99;100689.53;5401799;32;33907;-83
2023/08/10 13:24:39;;;;;;;0.70;0.60;;;;;;;42.40;14.47;100693.56;5415408;32;34391;-86
2023/08/10 13:27:42;;;;;;;2.33;0.90;;;;;;;43.47;13.44;100684.03;5414498;32;33888;-86
2023/08/10 13:30:44;;;;;;;0.88;0.70;;;;;;;41.85;13.78;100689.22;5389061;32;33893;-86
2023/08/10 13:33:47;;;;;;;0.93;0.52;;;;;;;40.72;15.27;100687.00;5389433;32;33407;-86
2023/08/10 13:36:55;;;;;;;2.40;0.70;;;;;;;40.88;15.39;100680.41;5388671;32;33622;-83
2023/08/10 13:39:58;;;;;;;0.85;0.70;;;;;;;39.26;17.02;100684.63;5415518;32;33916;-83
2023/08/10 13:43:00;;;;;;;1.45;1.00;;;;;;;39.35;18.09;100681.63;5415064;32;33859;-83
2023/08/10 13:46:03;;;;;;;2.37;0.77;;;;;;;41.65;15.28;100687.72;5401397;32;34446;-82
2023/08/10 13:49:06;;;;;;;0.82;0.60;;;;;;;42.31;15.12;100685.38;5395370;32;34785;-82
2023/08/10 13:52:09;;;;;;;2.25;0.70;;;;;;;41.15;15.53;100686.94;5364285;33;33729;-82
2023/08/10 13:55:12;;;;;;;1.62;0.80;;;;;;;41.05;16.31;100685.56;5365106;33;33684;-82
2023/08/10 13:58:14;;;;;;;0.60;0.60;;;;;;;40.56;16.94;100689.91;5376662;33;33864;-82
2023/08/10 14:01:17;;;;;;;1.08;0.90;;;;;;;40.89;16.09;100693.31;5378335;33;34493;-83
2023/08/10 14:04:21;;;;;;;0.70;0.70;;;;;;;40.20;16.04;100681.94;5376772;33;34062;-83
2023/08/10 14:07:23;;;;;;;2.37;0.85;;;;;;;40.54;16.53;100683.81;5378002;33;33932;-83
2023/08/10 14:10:26;;;;;;;1.30;0.77;;;;;;;40.88;15.85;100686.88;5364950;33;33604;-83
2023/08/10 14:13:29;;;;;;;1.15;0.73;;;;;;;40.43;16.32;100688.44;5379149;33;34745;-83
2023/08/10 14:16:32;;;;;;;3.17;0.88;;;;;;;39.29;16.14;100683.06;5382897;33;33745;-83
2023/08/10 14:19:35;;;;;;;0.65;0.65;;;;;;;36.42;18.74;100682.72;5381399;33;33831;-83
2023/08/10 14:22:38;;;;;;;1.02;0.90;;;;;;;33.49;21.63;100684.97;5385214;33;34125;-83
2023/08/10 14:25:41;;;;;;;1.75;0.80;;;;;;;31.85;24.46;100675.28;5382443;33;34508;-82
2023/08/10 14:28:44;;;;;;;0.93;0.80;;;;;;;30.59;26.12;100679.44;5381342;33;34168;-82
2023/08/10 14:31:46;;;;;;;0.90;0.90;;;;;;;29.48;27.84;100692.69;5366303;33;34066;-82
2023/08/10 14:34:54;;;;;;;1.25;1.02;;;;;;;28.43;27.62;100686.00;5378527;33;34742;-82
2023/08/10 14:37:57;;;;;;;1.00;0.80;;;;;;;28.03;28.71;100687.97;5367055;33;33814;-82
2023/08/10 14:41:00;;;;;;;0.90;0.90;;;;;;;27.16;29.11;100684.75;5368295;33;34632;-82
2023/08/10 14:44:03;;;;;;;2.10;0.80;;;;;;;27.15;29.21;100683.94;5382220;33;33593;-82
2023/08/10 14:47:06;;;;;;;3.47;1.00;;;;;;;27.05;29.62;100694.97;5366868;33;34688;-82
2023/08/10 14:50:09;;;;;;;1.83;0.93;;;;;;;27.11;29.44;100685.53;5378240;33;34397;-82
2023/08/10 14:53:12;;;;;;;0.80;0.80;;;;;;;26.62;30.17;100691.72;5367843;33;33647;-83
2023/08/10 14:56:15;;;;;;;3.25;0.82;;;;;;;26.17;31.63;100699.66;5379720;33;34718;-83
2023/08/10 14:59:18;;;;;;;2.35;0.93;;;;;;;26.18;30.83;100697.75;5366393;33;34994;-83
2023/08/10 15:02:21;;;;;;;0.65;0.65;;;;;;;25.93;31.66;100693.84;5379740;33;34773;-83
2023/08/10 15:05:25;;;;;;;2.33;1.00;;;;;;;25.64;30.68;100690.69;5366138;33;34727;-83
2023/08/10 15:08:28;;;;;;;1.10;0.90;;;;;;;25.65;31.42;100694.28;5360952;33;158945;-83
2023/08/10 15:11:33;;;;;;;2.42;0.90;;;;;;;25.43;31.05;100692.53;5369400;33;33596;-83
2023/08/10 15:14:36;;;;;;;1.20;1.00;;;;;;;25.19;32.10;100705.94;5383575;33;34232;-83
2023/08/10 15:17:40;;;;;;;1.12;1.10;;;;;;;25.03;31.79;100699.47;5368852;33;34080;-83
2023/08/10 15:20:43;;;;;;;2.25;1.10;;;;;;;24.84;32.04;100695.50;5383237;33;33668;-83
2023/08/10 15:23:46;;;;;;;2.58;1.27;;;;;;;24.65;33.20;100687.63;5369691;33;34727;-83
2023/08/10 15:26:48;;;;;;;1.17;1.00;;;;;;;24.55;32.73;100692.25;5392065;33;35417;-83
2023/08/10 15:29:51;;;;;;;1.62;1.27;;;;;;;24.40;32.68;100696.50;5362675;33;34151;-83
2023/08/10 15:32:57;;;;;;;1.12;0.90;;;;;;;24.31;34.23;100700.00;5366709;33;35406;-83
2023/08/10 15:36:02;;;;;;;1.37;0.90;;;;;;;24.19;35.02;100700.16;5367064;33;33587;-83
2023/08/10 15:39:05;;;;;;;1.80;0.88;;;;;;;24.09;34.42;100711.06;5380197;33;33808;-83
2023/08/10 15:42:09;;;;;;;0.90;0.90;;;;;;;23.94;33.70;100706.22;5367166;33;33780;-86
2023/08/10 15:45:12;;;;;;;3.15;1.10;;;;;;;23.91;33.29;100709.50;5380325;33;33799;-87
2023/08/10 15:48:15;;;;;;;0.90;0.90;;;;;;;23.74;33.03;100709.56;5381351;33;35041;-87
2023/08/10 15:51:18;;;;;;;1.20;1.10;;;;;;;23.56;33.50;100710.72;5373209;33;34639;-87
2023/08/10 15:54:21;;;;;;;2.50;1.08;;;;;;;23.51;34.21;100714.22;5394977;33;33554;-84
2023/08/10 15:57:23;;;;;;;2.03;1.10;;;;;;;23.46;34.02;100719.66;5399885;33;34272;-83
